KFNT/FNT METAR and TAF weather

Enter ICAO airport designator
Station Type Date Time Source
KFNT METAR 2019/02/23 00:53 UTC NOAA

KFNT 230053Z 03006KT 10SM CLR 00/M06 A3042 RMK AO2 SLP313 T00001056


Station Type Date Time Source
KFNT Decoded METAR 2019/02/23 00:53 UTC NOAA

FLINT BISHOP INTERNATIONAL AIRPORT, MI, United States (KFNT) 42-58N 83-45W 233M
Feb 22, 2019 - 07:53 PM EST / 2019.02.23 0053 UTC
Wind: from the NNE (030 degrees) at 7 MPH (6 KT):0
Visibility: 10 mile(s):0
Sky conditions: clear
Temperature: 32.0 F (0.0 C)
Windchill: 24 F (-4 C):1
Dew Point: 21.9 F (-5.6 C)
Relative Humidity: 65%
Pressure (altimeter): 30.42 in. Hg (1030 hPa)
ob: KFNT 230053Z 03006KT 10SM CLR 00/M06 A3042 RMK AO2 SLP313 T00001056
cycle: 1

Station Type Date Time Source
KFNT TAF 2019/02/22 18:30 UTC NOAA

TAF KFNT 221727Z 2218/2318 VRB03KT P6SM SCT250
FM222000 16005KT P6SM BKN250
FM231000 08005KT P6SM OVC100
FM231500 12010KT P6SM OVC040


Example: see airport list